createdAt,value
2023-08-12T00:01:48.293Z,6.70
2023-08-12T00:06:51.167Z,7.13
2023-08-12T00:11:53.926Z,4.15
2023-08-12T00:16:58.053Z,10.02
2023-08-12T00:22:04.161Z,7.78
2023-08-12T00:27:07.641Z,7.15
2023-08-12T00:32:12.252Z,5.78
2023-08-12T00:37:15.125Z,7.85
2023-08-12T00:42:17.969Z,7.85
2023-08-12T00:47:23.144Z,5.50
2023-08-12T00:52:26.446Z,6.82
2023-08-12T00:57:29.446Z,7.55
2023-08-12T01:02:33.979Z,6.15
2023-08-12T01:07:36.986Z,5.72
2023-08-12T01:12:47.088Z,6.97
2023-08-12T01:17:53.426Z,6.53
2023-08-12T01:22:59.764Z,4.47
2023-08-12T01:28:04.532Z,6.18
2023-08-12T01:33:21.565Z,7.78
2023-08-12T01:38:27.775Z,7.13
2023-08-12T01:43:32.576Z,10.73
2023-08-12T01:48:35.412Z,5.50
2023-08-12T01:53:38.516Z,6.78
2023-08-12T01:58:42.978Z,5.88
2023-08-12T02:03:45.791Z,6.82
2023-08-12T02:08:48.820Z,5.13
2023-08-12T02:13:52.924Z,5.88
2023-08-12T02:18:55.715Z,6.30
2023-08-12T02:23:58.682Z,7.32
2023-08-12T02:29:02.850Z,8.18
2023-08-12T02:34:05.906Z,6.72
2023-08-12T02:39:08.706Z,8.40
2023-08-12T02:44:12.934Z,21.58
2023-08-12T02:49:15.724Z,7.10
2023-08-12T02:54:18.534Z,9.70
2023-08-12T02:59:22.684Z,7.07
2023-08-12T03:04:26.012Z,8.40
2023-08-12T03:09:29.578Z,7.65
2023-08-12T03:14:33.960Z,7.25
2023-08-12T03:19:38.362Z,8.90
2023-08-12T03:24:42.065Z,8.48
2023-08-12T03:29:46.387Z,6.90
2023-08-12T03:34:50.020Z,7.05
2023-08-12T03:39:53.134Z,6.18
2023-08-12T03:44:57.415Z,8.77
2023-08-12T03:50:00.317Z,8.43
2023-08-12T03:55:03.542Z,7.53
2023-08-12T04:00:09.802Z,8.10
2023-08-12T04:05:17.601Z,6.68
2023-08-12T04:10:20.561Z,5.47
2023-08-12T04:15:25.218Z,6.43
2023-08-12T04:20:28.154Z,6.60
2023-08-12T04:25:30.951Z,6.85
2023-08-12T04:30:35.202Z,8.27
2023-08-12T04:35:39.607Z,7.85
2023-08-12T04:40:44.433Z,9.43
2023-08-12T04:45:50.579Z,6.53
2023-08-12T04:51:00.913Z,6.93
2023-08-12T05:01:10.211Z,8.32
2023-08-12T05:06:13.774Z,6.30
2023-08-12T05:11:16.910Z,9.07
2023-08-12T05:16:22.309Z,6.63
2023-08-12T05:21:25.918Z,7.95
2023-08-12T05:26:29.491Z,6.03
2023-08-12T05:31:33.647Z,7.15
2023-08-12T05:36:37.462Z,10.55
2023-08-12T05:41:40.311Z,7.72
2023-08-12T05:46:44.445Z,9.63
2023-08-12T05:51:47.297Z,9.98
2023-08-12T05:56:50.124Z,7.72
2023-08-12T06:01:54.240Z,8.48
2023-08-12T06:06:57.107Z,10.10
2023-08-12T06:11:59.933Z,8.88
2023-08-12T06:17:04.060Z,12.75
2023-08-12T06:22:07.019Z,13.30
2023-08-12T06:27:09.866Z,12.55
2023-08-12T06:32:15.708Z,19.75
2023-08-12T06:37:18.559Z,16.10
2023-08-12T06:42:21.373Z,12.15
2023-08-12T06:47:27.783Z,14.48
2023-08-12T06:52:30.756Z,17.10
2023-08-12T06:57:33.507Z,15.63
2023-08-12T07:02:37.734Z,13.85
2023-08-12T07:07:40.621Z,11.45
2023-08-12T07:12:43.464Z,11.95
2023-08-12T07:17:47.648Z,15.43
2023-08-12T07:22:50.482Z,12.90
2023-08-12T07:27:53.267Z,14.15
2023-08-12T07:32:57.421Z,16.80
2023-08-12T07:38:00.248Z,14.57
2023-08-12T07:43:03.035Z,13.32
2023-08-12T07:48:07.825Z,14.05
2023-08-12T07:53:10.663Z,18.13
2023-08-12T07:58:13.552Z,11.98
2023-08-12T08:03:20.505Z,13.57
2023-08-12T08:08:23.293Z,11.93
2023-08-12T08:13:26.179Z,12.13
2023-08-12T08:18:30.406Z,11.55
2023-08-12T08:23:33.221Z,12.82
2023-08-12T08:28:36.344Z,13.57
2023-08-12T08:33:42.046Z,14.18
2023-08-12T08:38:46.922Z,12.23
2023-08-12T08:43:50.630Z,13.68
2023-08-12T08:48:56.464Z,12.25
2023-08-12T08:54:03.732Z,13.25
2023-08-12T08:59:07.160Z,13.57
2023-08-12T09:04:13.209Z,12.90
2023-08-12T09:09:19.778Z,12.93
2023-08-12T09:14:22.737Z,16.50
2023-08-12T09:19:27.011Z,16.00
2023-08-12T09:24:30.873Z,17.75
2023-08-12T09:29:35.173Z,17.75
2023-08-12T09:34:39.376Z,16.08
2023-08-12T09:39:42.320Z,16.40
2023-08-12T09:44:45.803Z,17.35
2023-08-12T09:49:49.901Z,19.63
2023-08-12T09:54:57.469Z,17.50
2023-08-12T10:00:00.443Z,18.92
2023-08-12T10:05:04.977Z,16.17
2023-08-12T10:10:10.307Z,14.07
2023-08-12T10:15:13.569Z,14.18
2023-08-12T10:20:23.581Z,12.40
2023-08-12T10:25:33.304Z,12.20
2023-08-12T10:30:36.835Z,10.45
2023-08-12T10:35:45.788Z,9.52
2023-08-12T10:40:49.465Z,11.23
2023-08-12T10:45:55.289Z,10.30
2023-08-12T10:51:01.973Z,11.60
2023-08-12T10:56:06.473Z,10.20
2023-08-12T11:01:15.910Z,12.95
2023-08-12T11:06:21.478Z,11.73
2023-08-12T11:11:25.486Z,9.23
2023-08-12T11:16:38.618Z,6.05
2023-08-12T11:21:43.804Z,8.23
2023-08-12T11:26:48.075Z,7.13
2023-08-12T11:31:50.941Z,7.47
2023-08-12T11:36:55.137Z,11.50
2023-08-12T11:41:58.741Z,7.82
2023-08-12T11:47:01.583Z,40.30
2023-08-12T11:52:06.476Z,10.65
2023-08-12T11:57:09.355Z,25.10
2023-08-12T12:02:13.708Z,8.75
2023-08-12T12:07:22.482Z,8.68
2023-08-12T12:12:26.630Z,9.25
2023-08-12T12:17:48.388Z,8.18
2023-08-12T12:22:52.826Z,9.52
2023-08-12T12:27:56.283Z,11.25
2023-08-12T12:32:59.074Z,10.25
2023-08-12T12:38:03.271Z,7.53
2023-08-12T12:43:06.450Z,10.27
2023-08-12T12:48:09.264Z,11.35
2023-08-12T12:53:13.400Z,14.40
2023-08-12T12:58:17.237Z,8.45
2023-08-12T13:03:20.233Z,9.13
2023-08-12T13:08:24.445Z,9.52
2023-08-12T13:13:27.382Z,11.25
2023-08-12T13:18:30.196Z,11.80
2023-08-12T13:23:34.362Z,10.32
2023-08-12T13:28:37.182Z,9.32
2023-08-12T13:33:39.989Z,10.27
2023-08-12T13:38:44.128Z,11.07
2023-08-12T13:43:46.901Z,12.32
2023-08-12T13:48:49.675Z,14.10
2023-08-12T13:53:54.242Z,12.90
2023-08-12T13:58:57.135Z,15.52
2023-08-12T14:03:59.900Z,16.95
2023-08-12T14:09:04.259Z,15.00
2023-08-12T14:14:07.014Z,14.70
2023-08-12T14:19:09.938Z,16.25
2023-08-12T14:24:14.346Z,15.77
2023-08-12T14:29:17.172Z,14.93
2023-08-12T14:34:20.027Z,16.27
2023-08-12T14:39:24.315Z,12.90
2023-08-12T14:44:27.079Z,13.13
2023-08-12T14:49:29.876Z,13.75
2023-08-12T14:54:34.000Z,14.80
2023-08-12T14:59:36.761Z,12.82
2023-08-12T15:04:39.830Z,14.90
2023-08-12T15:09:44.060Z,13.85
2023-08-12T15:14:46.856Z,16.00
2023-08-12T15:19:49.942Z,16.75
2023-08-12T15:24:54.913Z,13.48
2023-08-12T15:29:57.737Z,14.13
2023-08-12T15:35:01.804Z,13.40
2023-08-12T15:40:07.007Z,18.13
2023-08-12T15:45:12.436Z,14.02
2023-08-12T15:50:15.248Z,16.60
2023-08-12T15:55:19.587Z,12.82
2023-08-12T16:00:22.506Z,14.82
2023-08-12T16:05:25.380Z,14.95
2023-08-12T16:10:30.094Z,16.17
2023-08-12T16:15:33.285Z,16.00
2023-08-12T16:20:36.287Z,14.57
2023-08-12T16:25:40.450Z,9.23
2023-08-12T16:30:43.253Z,3.80
2023-08-12T16:35:47.649Z,3.17
2023-08-12T16:40:51.841Z,2.95
2023-08-12T16:45:54.682Z,3.25
2023-08-12T16:50:57.536Z,2.45
2023-08-12T16:56:01.714Z,3.47
2023-08-12T17:01:04.999Z,3.63
2023-08-12T17:06:07.875Z,2.60
2023-08-12T17:11:12.055Z,2.90
2023-08-12T17:16:14.863Z,2.83
2023-08-12T17:21:18.716Z,2.80
2023-08-12T17:26:22.847Z,2.78
2023-08-12T17:31:25.794Z,3.65
2023-08-12T17:36:28.622Z,3.67
2023-08-12T17:41:32.876Z,3.05
2023-08-12T17:46:35.811Z,4.15
2023-08-12T17:51:39.927Z,5.03
2023-08-12T17:56:45.146Z,5.35
2023-08-12T18:01:48.670Z,3.97
2023-08-12T18:06:51.470Z,4.85
2023-08-12T18:11:55.598Z,5.63
2023-08-12T18:16:58.552Z,4.38
2023-08-12T18:22:01.456Z,4.70
2023-08-12T18:27:05.723Z,5.72
2023-08-12T18:32:08.517Z,5.35
2023-08-12T18:37:11.373Z,5.40
2023-08-12T18:42:15.914Z,8.50
2023-08-12T18:47:19.037Z,4.47
2023-08-12T18:52:21.858Z,7.65
2023-08-12T18:57:26.046Z,4.95
2023-08-12T19:02:28.989Z,6.30
2023-08-12T19:07:31.941Z,4.93
2023-08-12T19:12:36.209Z,4.80
2023-08-12T19:17:39.070Z,4.82
2023-08-12T19:22:41.882Z,6.95
2023-08-12T19:27:46.002Z,7.70
2023-08-12T19:32:50.597Z,6.03
2023-08-12T19:37:56.653Z,6.60
2023-08-12T19:43:00.868Z,9.57
2023-08-12T19:48:05.378Z,9.70
2023-08-12T19:53:08.381Z,9.00
2023-08-12T19:58:12.955Z,7.05
2023-08-12T20:03:15.853Z,7.70
2023-08-12T20:08:18.690Z,15.18
2023-08-12T20:13:23.803Z,10.52
2023-08-12T20:18:27.581Z,10.20
2023-08-12T20:23:30.364Z,8.43
2023-08-12T20:28:34.477Z,11.45
2023-08-12T20:33:37.301Z,9.13
2023-08-12T20:38:40.123Z,8.73
2023-08-12T20:43:44.249Z,11.93
2023-08-12T20:48:47.020Z,11.45
2023-08-12T20:53:49.806Z,10.65
2023-08-12T20:58:53.929Z,11.15
2023-08-12T21:03:56.774Z,13.40
2023-08-12T21:08:59.684Z,7.90
2023-08-12T21:14:03.854Z,15.07
2023-08-12T21:19:07.115Z,10.80
2023-08-12T21:24:09.991Z,16.38
2023-08-12T21:29:14.435Z,12.40
2023-08-12T21:34:17.272Z,12.48
2023-08-12T21:39:20.039Z,13.45
2023-08-12T21:44:24.168Z,16.20
2023-08-12T21:49:27.008Z,8.50
2023-08-12T21:54:29.780Z,9.02
2023-08-12T21:59:33.953Z,8.75
2023-08-12T22:04:36.704Z,10.18
2023-08-12T22:09:39.474Z,9.85
2023-08-12T22:14:43.579Z,15.93
2023-08-12T22:19:48.827Z,10.00
2023-08-12T22:24:51.693Z,10.30
2023-08-12T22:29:55.834Z,8.25
2023-08-12T22:34:58.598Z,14.23
2023-08-12T22:40:01.640Z,8.70
2023-08-12T22:45:08.455Z,9.88
2023-08-12T22:50:13.207Z,10.15
2023-08-12T22:55:16.081Z,13.02
2023-08-12T23:00:20.399Z,10.45
2023-08-12T23:05:23.231Z,13.80
2023-08-12T23:10:26.518Z,13.98
2023-08-12T23:15:30.669Z,11.68
2023-08-12T23:20:33.479Z,12.32
2023-08-12T23:25:36.344Z,11.50
2023-08-12T23:30:41.243Z,10.85
2023-08-12T23:35:44.078Z,12.32
2023-08-12T23:40:46.872Z,10.80
2023-08-12T23:45:50.997Z,12.80
2023-08-12T23:50:53.908Z,10.02
2023-08-12T23:55:56.688Z,10.88
